createdAt,value
2019-01-18T00:00:30.077Z,79.70
2019-01-18T00:02:59.606Z,80.00
2019-01-18T00:05:28.537Z,79.90
2019-01-18T00:07:57.816Z,79.00
2019-01-18T00:10:26.739Z,78.20
2019-01-18T00:12:57.382Z,77.80
2019-01-18T00:15:27.348Z,77.60
2019-01-18T00:17:59.799Z,77.90
2019-01-18T00:20:29.265Z,77.10
2019-01-18T00:22:58.424Z,78.00
2019-01-18T00:25:27.466Z,78.20
2019-01-18T00:27:57.125Z,77.50
2019-01-18T00:30:26.153Z,77.30
2019-01-18T00:32:56.705Z,77.50
2019-01-18T00:35:25.780Z,77.90
2019-01-18T00:37:54.781Z,77.70
2019-01-18T00:40:24.326Z,76.20
2019-01-18T00:42:53.401Z,76.50
2019-01-18T00:45:22.442Z,76.50
2019-01-18T00:47:51.572Z,76.80
2019-01-18T00:50:26.652Z,76.80
2019-01-18T00:52:55.630Z,76.60
2019-01-18T00:55:24.418Z,77.00
2019-01-18T00:57:53.736Z,76.50
2019-01-18T01:00:47.659Z,76.10
2019-01-18T01:03:16.928Z,77.60
2019-01-18T01:05:45.764Z,76.80
2019-01-18T01:08:14.551Z,75.70
2019-01-18T01:10:45.139Z,75.30
2019-01-18T01:13:24.742Z,76.20
2019-01-18T01:15:54.127Z,76.80
2019-01-18T01:18:23.098Z,77.40
2019-01-18T01:20:51.926Z,78.90
2019-01-18T01:23:21.256Z,79.30
2019-01-18T01:25:50.272Z,79.20
2019-01-18T01:28:19.738Z,78.10
2019-01-18T01:30:49.394Z,78.00
2019-01-18T01:33:19.830Z,77.40
2019-01-18T01:35:49.425Z,77.90
2019-01-18T01:38:18.499Z,77.10
2019-01-18T01:40:47.804Z,78.80
2019-01-18T01:43:16.659Z,78.60
2019-01-18T01:45:45.581Z,79.20
2019-01-18T01:48:14.970Z,79.00
2019-01-18T01:50:51.068Z,79.20
2019-01-18T01:53:20.186Z,79.80
2019-01-18T01:55:52.007Z,79.40
2019-01-18T01:58:21.041Z,79.50
2019-01-18T02:00:51.803Z,79.30
2019-01-18T02:03:20.874Z,79.60
2019-01-18T02:05:50.012Z,80.30
2019-01-18T02:08:19.973Z,79.40
2019-01-18T02:10:49.224Z,79.40
2019-01-18T02:13:18.143Z,79.00
2019-01-18T02:15:47.022Z,79.10
2019-01-18T02:18:17.153Z,79.80
2019-01-18T02:20:47.056Z,79.80
2019-01-18T02:23:17.142Z,80.00
2019-01-18T02:25:46.490Z,79.50
2019-01-18T02:28:15.357Z,79.30
2019-01-18T02:30:44.392Z,80.10
2019-01-18T02:33:13.454Z,79.60
2019-01-18T02:35:42.454Z,80.00
2019-01-18T02:38:11.732Z,80.50
2019-01-18T02:40:40.971Z,80.50
2019-01-18T02:43:10.591Z,80.60
2019-01-18T02:45:39.562Z,80.90
2019-01-18T02:48:08.591Z,81.00
2019-01-18T02:50:39.480Z,80.80
2019-01-18T02:53:16.477Z,81.00
2019-01-18T02:55:45.363Z,80.20
2019-01-18T02:58:14.440Z,80.20
2019-01-18T03:00:43.531Z,80.00
2019-01-18T03:03:12.915Z,80.20
2019-01-18T03:05:41.812Z,80.30
2019-01-18T03:08:11.413Z,80.60
2019-01-18T03:10:40.269Z,80.80
2019-01-18T03:13:09.116Z,81.00
2019-01-18T03:15:38.313Z,80.90
2019-01-18T03:18:10.156Z,80.60
2019-01-18T03:20:39.222Z,80.60
2019-01-18T03:23:08.091Z,80.70
2019-01-18T03:25:36.951Z,80.40
2019-01-18T03:28:06.514Z,80.40
2019-01-18T03:30:36.742Z,80.40
2019-01-18T03:33:05.699Z,79.60
2019-01-18T03:35:34.744Z,79.80
2019-01-18T03:38:03.564Z,79.60
2019-01-18T03:40:32.512Z,79.70
2019-01-18T03:43:01.647Z,79.70
2019-01-18T03:45:31.690Z,79.20
2019-01-18T03:48:00.536Z,78.90
2019-01-18T03:50:30.041Z,78.70
2019-01-18T03:52:59.109Z,78.70
2019-01-18T03:55:28.113Z,79.30
2019-01-18T03:57:57.212Z,79.30
2019-01-18T04:00:27.785Z,79.00
2019-01-18T04:02:56.718Z,78.80
2019-01-18T04:05:26.092Z,79.20
2019-01-18T04:07:55.098Z,79.10
2019-01-18T04:10:24.138Z,79.40
2019-01-18T04:12:53.495Z,79.20
2019-01-18T04:15:41.861Z,79.10
2019-01-18T04:18:11.086Z,79.70
2019-01-18T04:20:40.073Z,79.50
2019-01-18T04:23:08.977Z,79.00
2019-01-18T04:25:38.217Z,79.20
2019-01-18T04:28:07.131Z,79.50
2019-01-18T04:30:36.248Z,79.90
2019-01-18T04:33:24.654Z,79.80
2019-01-18T04:35:53.617Z,79.60
2019-01-18T04:38:22.411Z,80.20
2019-01-18T04:40:51.648Z,80.10
2019-01-18T04:43:20.466Z,79.70
2019-01-18T04:45:49.700Z,79.70
2019-01-18T04:48:19.196Z,78.80
2019-01-18T04:50:48.064Z,78.00
2019-01-18T04:53:16.901Z,77.40
2019-01-18T04:55:46.034Z,77.10
2019-01-18T04:58:15.288Z,77.10
2019-01-18T05:00:44.170Z,77.30
2019-01-18T05:03:13.145Z,77.20
2019-01-18T05:05:42.028Z,77.70
2019-01-18T05:08:11.086Z,77.80
2019-01-18T05:10:40.141Z,77.50
2019-01-18T05:13:09.140Z,77.20
2019-01-18T05:15:38.172Z,77.30
2019-01-18T05:18:07.076Z,76.90
2019-01-18T05:20:55.348Z,76.40
2019-01-18T05:23:24.277Z,75.70
2019-01-18T05:25:53.296Z,75.30
2019-01-18T05:28:22.154Z,76.40
2019-01-18T05:30:51.186Z,77.30
2019-01-18T05:33:22.429Z,77.10
2019-01-18T05:35:52.551Z,76.90
2019-01-18T05:38:21.511Z,76.70
2019-01-18T05:40:51.090Z,77.00
2019-01-18T05:43:20.309Z,77.10
2019-01-18T05:45:49.838Z,77.80
2019-01-18T05:48:19.114Z,77.80
2019-01-18T05:50:48.378Z,76.80
2019-01-18T05:53:17.989Z,76.50
2019-01-18T05:55:46.828Z,75.40
2019-01-18T05:58:16.060Z,75.90
2019-01-18T06:00:46.578Z,76.00
2019-01-18T06:03:15.669Z,76.10
2019-01-18T06:05:44.875Z,75.90
2019-01-18T06:08:14.816Z,74.90
2019-01-18T06:10:44.053Z,76.10
2019-01-18T06:13:13.203Z,76.90
2019-01-18T06:15:42.207Z,77.00
2019-01-18T06:18:11.142Z,77.30
2019-01-18T06:20:40.242Z,78.00
2019-01-18T06:23:09.344Z,78.30
2019-01-18T06:25:38.394Z,77.50
2019-01-18T06:28:07.342Z,76.90
2019-01-18T06:31:01.582Z,76.40
2019-01-18T06:33:28.139Z,76.30
2019-01-18T06:35:56.928Z,76.60
2019-01-18T06:38:26.284Z,76.40
2019-01-18T06:40:56.701Z,76.30
2019-01-18T06:43:29.237Z,75.90
2019-01-18T06:45:58.206Z,76.00
2019-01-18T06:48:27.958Z,74.40
2019-01-18T06:50:56.826Z,75.10
2019-01-18T06:53:25.955Z,75.20
2019-01-18T06:55:54.832Z,74.50
2019-01-18T06:58:23.735Z,75.20
2019-01-18T07:00:52.791Z,75.70
2019-01-18T07:03:21.871Z,76.10
2019-01-18T07:05:50.831Z,77.10
2019-01-18T07:08:20.079Z,77.20
2019-01-18T07:10:49.326Z,76.80
2019-01-18T07:13:18.355Z,76.50
2019-01-18T07:15:47.881Z,76.80
2019-01-18T07:18:16.719Z,76.80
2019-01-18T07:20:48.454Z,76.80
2019-01-18T07:23:17.822Z,77.50
2019-01-18T07:25:46.938Z,77.40
2019-01-18T07:28:15.790Z,77.50
2019-01-18T07:30:44.984Z,77.60
2019-01-18T07:33:14.222Z,77.10
2019-01-18T07:35:45.372Z,75.70
2019-01-18T07:38:14.383Z,76.60
2019-01-18T07:40:43.431Z,77.50
2019-01-18T07:43:12.419Z,77.50
2019-01-18T07:45:41.503Z,77.20
2019-01-18T07:48:11.519Z,76.90
2019-01-18T07:50:41.341Z,77.10
2019-01-18T07:53:10.269Z,77.50
2019-01-18T07:55:39.179Z,78.30
2019-01-18T07:58:08.222Z,78.20
2019-01-18T08:00:37.400Z,76.30
2019-01-18T08:03:06.361Z,77.50
2019-01-18T08:05:35.150Z,77.30
2019-01-18T08:08:04.885Z,76.70
2019-01-18T08:10:33.742Z,76.30
2019-01-18T08:13:02.765Z,77.70
2019-01-18T08:15:33.252Z,77.70
2019-01-18T08:18:02.236Z,77.30
2019-01-18T08:20:31.001Z,77.20
2019-01-18T08:23:00.157Z,77.00
2019-01-18T08:25:29.204Z,77.20
2019-01-18T08:27:58.169Z,77.60
2019-01-18T08:30:29.172Z,78.30
2019-01-18T08:32:58.065Z,78.60
2019-01-18T08:35:29.131Z,78.20
2019-01-18T08:38:00.562Z,78.20
2019-01-18T08:40:48.757Z,77.90
2019-01-18T08:43:20.225Z,77.90
2019-01-18T08:45:50.610Z,77.90
2019-01-18T08:48:20.351Z,78.40
2019-01-18T08:50:49.541Z,78.00
2019-01-18T08:53:18.560Z,78.80
2019-01-18T08:55:47.884Z,79.00
2019-01-18T08:58:15.998Z,78.80
2019-01-18T09:00:46.274Z,79.00
2019-01-18T09:03:14.459Z,78.50
2019-01-18T09:06:01.792Z,78.60
2019-01-18T09:08:30.030Z,79.00
2019-01-18T09:10:58.044Z,78.60
2019-01-18T09:13:26.621Z,77.50
2019-01-18T09:15:57.838Z,78.10
2019-01-18T09:18:25.879Z,78.10
2019-01-18T09:20:53.806Z,77.20
2019-01-18T09:23:22.070Z,77.20
2019-01-18T09:25:50.281Z,76.80
2019-01-18T09:28:18.824Z,75.80
2019-01-18T09:30:47.278Z,77.10
2019-01-18T09:33:16.406Z,77.70
2019-01-18T09:35:45.112Z,78.90
2019-01-18T09:38:17.695Z,79.30
2019-01-18T09:40:43.534Z,79.70
2019-01-18T09:43:19.458Z,79.70
2019-01-18T09:45:47.458Z,78.30
2019-01-18T09:48:15.840Z,77.20
2019-01-18T09:50:45.138Z,78.00
2019-01-18T09:53:13.437Z,77.60
2019-01-18T09:55:41.502Z,77.00
2019-01-18T09:58:11.321Z,76.80
2019-01-18T10:00:39.567Z,76.40
2019-01-18T10:03:07.698Z,75.90
2019-01-18T10:05:36.124Z,76.20
2019-01-18T10:08:11.170Z,76.10
2019-01-18T10:10:43.518Z,76.00
2019-01-18T10:13:11.582Z,75.90
2019-01-18T10:15:41.882Z,76.00
2019-01-18T10:18:10.228Z,75.90
2019-01-18T10:20:40.224Z,75.70
2019-01-18T10:23:08.396Z,75.80
2019-01-18T10:25:37.084Z,75.00
2019-01-18T10:28:05.105Z,75.30
2019-01-18T10:30:33.341Z,75.30
2019-01-18T10:33:10.606Z,74.60
2019-01-18T10:35:39.757Z,74.10
2019-01-18T10:38:11.035Z,75.20
2019-01-18T10:40:39.223Z,75.30
2019-01-18T10:43:07.243Z,74.70
2019-01-18T10:45:35.475Z,75.00
2019-01-18T10:48:03.891Z,76.10
2019-01-18T10:50:34.056Z,75.40
2019-01-18T10:53:05.132Z,75.80
2019-01-18T10:55:33.364Z,76.70
2019-01-18T10:58:01.461Z,76.00
2019-01-18T11:00:31.175Z,76.30
2019-01-18T11:02:59.461Z,77.10
2019-01-18T11:05:27.809Z,77.20
2019-01-18T11:07:55.898Z,74.60
2019-01-18T11:10:24.141Z,74.10
2019-01-18T11:12:52.239Z,74.50
2019-01-18T11:15:21.825Z,73.70
2019-01-18T11:17:50.224Z,73.60
2019-01-18T11:20:23.354Z,73.40
2019-01-18T11:22:52.106Z,72.40
2019-01-18T11:25:20.528Z,72.30
2019-01-18T11:27:49.480Z,72.30
2019-01-18T11:30:36.732Z,72.20
2019-01-18T11:33:05.046Z,72.40
2019-01-18T11:35:33.436Z,73.00
2019-01-18T11:38:01.631Z,73.50
2019-01-18T11:40:30.362Z,73.40
2019-01-18T11:42:58.910Z,72.20
2019-01-18T11:45:46.185Z,73.10
2019-01-18T11:48:14.543Z,72.60
2019-01-18T11:50:42.512Z,72.00
2019-01-18T11:53:11.849Z,69.70
2019-01-18T11:55:40.991Z,70.10
2019-01-18T11:58:10.257Z,71.10
2019-01-18T12:00:39.092Z,71.60
2019-01-18T12:03:27.452Z,72.00
2019-01-18T12:05:56.372Z,71.90
2019-01-18T12:08:25.221Z,71.40
2019-01-18T12:10:54.273Z,71.80
2019-01-18T12:13:23.415Z,72.60
2019-01-18T12:15:52.255Z,72.40
2019-01-18T12:18:22.507Z,72.30
2019-01-18T12:20:52.984Z,72.60
2019-01-18T12:23:24.214Z,71.80
2019-01-18T12:25:53.377Z,72.00
2019-01-18T12:28:24.118Z,72.00
2019-01-18T12:30:53.190Z,70.80
2019-01-18T12:33:22.343Z,71.40
2019-01-18T12:35:57.079Z,71.20
2019-01-18T12:38:26.166Z,71.60
2019-01-18T12:40:55.291Z,72.00
2019-01-18T12:43:24.373Z,71.30
2019-01-18T12:45:53.530Z,70.30
2019-01-18T12:48:22.817Z,71.50
2019-01-18T12:50:57.992Z,71.60
2019-01-18T12:53:26.885Z,69.80
2019-01-18T12:55:55.806Z,70.30
2019-01-18T12:58:24.949Z,70.10
2019-01-18T13:00:53.814Z,70.00
2019-01-18T13:03:22.670Z,70.50
2019-01-18T13:05:52.662Z,70.80
2019-01-18T13:08:21.747Z,71.30
2019-01-18T13:10:52.630Z,71.50
2019-01-18T13:13:22.030Z,71.20
2019-01-18T13:15:56.384Z,71.30
2019-01-18T13:18:25.569Z,71.70
2019-01-18T13:20:54.515Z,71.10
2019-01-18T13:23:23.342Z,70.70
2019-01-18T13:25:52.786Z,71.10
2019-01-18T13:28:21.715Z,70.90
2019-01-18T13:30:51.340Z,70.80
2019-01-18T13:33:21.180Z,70.10
2019-01-18T13:35:50.787Z,70.90
2019-01-18T13:38:19.604Z,71.00
2019-01-18T13:40:49.457Z,71.80
2019-01-18T13:43:18.633Z,71.50
2019-01-18T13:45:48.682Z,72.00
2019-01-18T13:48:17.750Z,71.40
2019-01-18T13:50:47.238Z,70.70
2019-01-18T13:53:16.215Z,72.30
2019-01-18T13:55:45.710Z,72.00
2019-01-18T13:58:14.730Z,71.60
2019-01-18T14:00:43.708Z,71.40
2019-01-18T14:03:25.873Z,71.00
2019-01-18T14:05:54.795Z,71.00
2019-01-18T14:08:23.997Z,72.00
2019-01-18T14:10:53.448Z,70.70
2019-01-18T14:13:22.299Z,70.00
2019-01-18T14:15:52.265Z,70.00
2019-01-18T14:18:22.655Z,70.40
2019-01-18T14:20:51.658Z,70.50
2019-01-18T14:23:20.780Z,70.70
2019-01-18T14:25:50.322Z,70.30
2019-01-18T14:28:20.152Z,70.60
2019-01-18T14:30:49.554Z,70.10
2019-01-18T14:33:19.309Z,71.20
2019-01-18T14:35:48.209Z,72.10
2019-01-18T14:38:17.164Z,71.70
2019-01-18T14:40:46.253Z,71.40
2019-01-18T14:43:15.276Z,71.30
2019-01-18T14:45:44.933Z,71.70
2019-01-18T14:48:14.267Z,72.60
2019-01-18T14:50:43.488Z,72.50
2019-01-18T14:53:12.375Z,72.10
2019-01-18T14:55:41.474Z,71.50
2019-01-18T14:58:10.309Z,72.50
2019-01-18T15:00:40.031Z,72.60
2019-01-18T15:03:12.122Z,72.70
2019-01-18T15:05:41.845Z,72.70
2019-01-18T15:08:37.458Z,72.40
2019-01-18T15:11:06.519Z,72.70
2019-01-18T15:13:35.496Z,72.20
2019-01-18T15:16:04.962Z,71.40
2019-01-18T15:18:34.461Z,70.90
2019-01-18T15:21:03.349Z,71.20
2019-01-18T15:23:33.052Z,70.40
2019-01-18T15:26:02.081Z,70.80
2019-01-18T15:28:30.915Z,70.30
2019-01-18T15:31:01.412Z,71.00
2019-01-18T15:33:30.765Z,71.60
2019-01-18T15:36:00.950Z,71.00
2019-01-18T15:38:42.967Z,71.30
2019-01-18T15:41:11.778Z,71.60
2019-01-18T15:43:41.792Z,72.70
2019-01-18T15:46:10.876Z,72.60
2019-01-18T15:48:40.069Z,71.70
2019-01-18T15:51:10.475Z,71.40
2019-01-18T15:53:39.512Z,70.30
2019-01-18T15:56:08.395Z,70.40
2019-01-18T15:58:37.597Z,70.60
2019-01-18T16:01:06.837Z,71.90
2019-01-18T16:03:35.806Z,72.10
2019-01-18T16:06:05.185Z,71.20
2019-01-18T16:08:34.250Z,71.30
2019-01-18T16:11:03.326Z,70.90
2019-01-18T16:13:32.216Z,71.30
2019-01-18T16:16:04.739Z,72.00
2019-01-18T16:18:33.982Z,72.70
2019-01-18T16:21:03.119Z,72.70
2019-01-18T16:23:35.050Z,73.20
2019-01-18T16:26:04.549Z,73.20
2019-01-18T16:28:33.597Z,72.30
2019-01-18T16:31:03.117Z,71.30
2019-01-18T16:33:32.081Z,72.30
2019-01-18T16:36:02.890Z,72.00
2019-01-18T16:38:33.407Z,72.70
2019-01-18T16:41:07.094Z,73.10
2019-01-18T16:43:36.899Z,72.70
2019-01-18T16:46:07.859Z,71.80
2019-01-18T16:48:45.443Z,71.70
2019-01-18T16:51:14.470Z,71.60
2019-01-18T16:53:47.092Z,72.70
2019-01-18T16:56:16.077Z,73.20
2019-01-18T16:58:46.716Z,72.80
2019-01-18T17:01:16.494Z,71.90
2019-01-18T17:03:45.338Z,71.60
2019-01-18T17:06:14.565Z,72.60
2019-01-18T17:08:43.965Z,72.90
2019-01-18T17:11:13.128Z,71.50
2019-01-18T17:13:45.463Z,71.50
2019-01-18T17:16:14.475Z,72.40
2019-01-18T17:18:43.500Z,71.30
2019-01-18T17:21:14.437Z,71.00
2019-01-18T17:23:43.368Z,70.80
2019-01-18T17:26:12.727Z,70.90
2019-01-18T17:28:42.536Z,70.50
2019-01-18T17:31:11.537Z,71.10
2019-01-18T17:33:42.329Z,72.00
2019-01-18T17:36:16.734Z,71.60
2019-01-18T17:38:47.684Z,72.00
2019-01-18T17:41:22.592Z,71.10
2019-01-18T17:43:54.629Z,71.00
2019-01-18T17:46:38.756Z,72.60
2019-01-18T17:49:21.988Z,73.10
2019-01-18T17:55:13.917Z,73.10
2019-01-18T17:58:04.575Z,72.00
2019-01-18T18:00:50.947Z,71.40
2019-01-18T18:03:36.481Z,71.60
2019-01-18T18:06:08.325Z,71.10
2019-01-18T18:08:43.435Z,70.20
2019-01-18T18:11:44.004Z,72.00
2019-01-18T18:14:23.267Z,72.60
2019-01-18T18:17:36.145Z,72.70
2019-01-18T18:20:25.379Z,72.60
2019-01-18T18:23:12.719Z,72.80
2019-01-18T18:25:55.064Z,74.10
2019-01-18T18:28:41.775Z,73.20
2019-01-18T18:34:24.914Z,73.40
2019-01-18T18:37:05.033Z,73.60
2019-01-18T18:45:50.793Z,71.60
2019-01-18T18:48:39.047Z,71.50
2019-01-18T18:51:30.449Z,72.30
2019-01-18T18:54:09.219Z,73.50
2019-01-18T18:56:56.448Z,73.80
2019-01-18T19:03:07.574Z,74.30
2019-01-18T19:05:46.209Z,74.80
2019-01-18T19:08:25.355Z,73.50
2019-01-18T19:11:14.917Z,73.80
2019-01-18T19:14:15.519Z,73.80
2019-01-18T19:16:56.644Z,74.10
2019-01-18T19:19:36.631Z,74.30
2019-01-18T19:22:20.399Z,74.60
2019-01-18T19:25:16.262Z,74.10
2019-01-18T19:28:21.055Z,74.60
2019-01-18T19:30:58.975Z,73.30
2019-01-18T19:33:32.074Z,73.90
2019-01-18T19:36:10.089Z,74.50
2019-01-18T19:38:56.998Z,74.00
2019-01-18T19:44:41.091Z,74.60
2019-01-18T19:47:16.436Z,74.30
2019-01-18T19:50:10.941Z,74.90
2019-01-18T19:53:02.363Z,74.00
2019-01-18T19:56:17.763Z,74.00
2019-01-18T19:59:09.161Z,72.90
2019-01-18T20:01:44.668Z,73.20
2019-01-18T20:07:15.388Z,72.70
2019-01-18T20:09:57.480Z,72.60
2019-01-18T20:12:37.793Z,73.40
2019-01-18T20:15:39.645Z,73.50
2019-01-18T20:18:17.712Z,73.90
2019-01-18T20:20:55.423Z,74.40
2019-01-18T20:23:46.864Z,73.90
2019-01-18T20:26:22.650Z,73.90
2019-01-18T20:29:29.435Z,74.10
2019-01-18T20:32:24.183Z,74.30
2019-01-18T20:35:11.498Z,73.70
2019-01-18T20:38:07.007Z,73.50
2019-01-18T20:40:54.162Z,72.80
2019-01-18T20:43:28.865Z,72.90
2019-01-18T20:46:06.339Z,73.90
2019-01-18T20:48:43.945Z,72.80
2019-01-18T20:51:43.494Z,72.70
2019-01-18T20:57:38.672Z,72.50
2019-01-18T21:00:20.177Z,73.50
2019-01-18T21:02:58.710Z,73.30
2019-01-18T21:05:45.530Z,73.90
2019-01-18T21:08:46.525Z,74.40
2019-01-18T21:11:21.269Z,74.40
2019-01-18T21:13:57.210Z,73.90
2019-01-18T21:16:31.813Z,74.40
2019-01-18T21:19:29.341Z,74.50
2019-01-18T21:22:06.158Z,72.70
2019-01-18T21:25:12.609Z,73.50
2019-01-18T21:28:03.856Z,74.30
2019-01-18T21:31:08.937Z,74.40
2019-01-18T21:33:55.593Z,73.30
2019-01-18T21:36:30.147Z,73.80
2019-01-18T21:39:32.184Z,74.10
2019-01-18T21:42:10.078Z,73.70
2019-01-18T21:45:11.423Z,73.10
2019-01-18T21:47:46.284Z,73.80
2019-01-18T21:50:29.133Z,74.10
2019-01-18T21:53:09.852Z,74.30
2019-01-18T21:55:46.084Z,73.20
2019-01-18T21:58:30.912Z,74.10
2019-01-18T22:04:09.389Z,74.10
2019-01-18T22:06:59.019Z,73.10
2019-01-18T22:09:30.807Z,73.40
2019-01-18T22:12:50.334Z,74.60
2019-01-18T22:15:47.058Z,75.70
2019-01-18T22:21:34.854Z,74.70
2019-01-18T22:24:24.338Z,74.40
2019-01-18T22:27:17.331Z,75.40
2019-01-18T22:33:11.384Z,75.50
2019-01-18T22:36:34.696Z,74.90
2019-01-18T22:39:12.226Z,74.10
2019-01-18T22:44:57.123Z,74.60
2019-01-18T22:47:58.032Z,74.40
2019-01-18T22:50:38.726Z,74.40
2019-01-18T22:53:17.685Z,75.00
2019-01-18T22:55:54.915Z,75.40
2019-01-18T22:58:32.907Z,74.80
2019-01-18T23:01:21.984Z,74.60
2019-01-18T23:04:02.127Z,75.10
2019-01-18T23:06:45.974Z,75.40
2019-01-18T23:12:54.376Z,75.40
2019-01-18T23:15:56.364Z,75.10
2019-01-18T23:18:52.634Z,73.80
2019-01-18T23:21:35.269Z,73.30
2019-01-18T23:24:13.348Z,73.20
2019-01-18T23:27:06.030Z,72.90
2019-01-18T23:29:41.753Z,73.80
2019-01-18T23:32:25.532Z,73.80
2019-01-18T23:35:30.049Z,74.10
2019-01-18T23:38:11.897Z,73.30
2019-01-18T23:40:52.004Z,72.30
2019-01-18T23:43:26.881Z,72.30
2019-01-18T23:45:58.934Z,71.90
2019-01-18T23:48:33.753Z,72.00
2019-01-18T23:51:24.995Z,71.60
2019-01-18T23:53:56.837Z,73.10
2019-01-18T23:56:56.918Z,74.80
2019-01-18T23:59:50.179Z,75.00
